createdAt,value
2022-11-24T00:00:34.126Z,7.30
2022-11-24T00:05:38.506Z,6.98
2022-11-24T00:10:40.426Z,7.07
2022-11-24T00:15:42.430Z,4.99
2022-11-24T00:20:52.077Z,6.86
2022-11-24T00:25:53.951Z,6.24
2022-11-24T00:30:55.850Z,5.37
2022-11-24T00:35:59.362Z,6.63
2022-11-24T00:41:01.470Z,6.44
2022-11-24T00:46:03.793Z,6.71
2022-11-24T00:51:08.639Z,6.97
2022-11-24T00:56:11.928Z,7.09
2022-11-24T01:01:21.005Z,7.46
2022-11-24T01:06:25.452Z,6.18
2022-11-24T01:11:50.582Z,6.67
2022-11-24T01:16:52.978Z,6.38
2022-11-24T01:21:54.926Z,6.27
2022-11-24T01:26:56.919Z,6.46
2022-11-24T01:31:58.852Z,6.88
2022-11-24T01:37:00.782Z,7.34
2022-11-24T01:42:02.724Z,6.67
2022-11-24T01:47:20.430Z,6.77
2022-11-24T01:52:29.961Z,6.48
2022-11-24T01:57:51.632Z,6.68
2022-11-24T02:02:53.790Z,6.31
2022-11-24T02:07:59.735Z,5.90
2022-11-24T02:13:01.909Z,6.39
2022-11-24T02:18:04.084Z,6.64
2022-11-24T02:23:12.953Z,6.18
2022-11-24T02:28:21.405Z,6.36
2022-11-24T02:33:25.288Z,6.81
2022-11-24T02:38:35.441Z,6.30
2022-11-24T02:43:50.648Z,6.63
2022-11-24T02:48:52.580Z,6.32
2022-11-24T02:53:54.465Z,6.80
2022-11-24T02:58:56.403Z,6.63
2022-11-24T03:03:58.466Z,6.49
2022-11-24T03:09:00.383Z,6.17
2022-11-24T03:14:02.288Z,3.21
2022-11-24T03:19:04.792Z,4.00
2022-11-24T03:24:06.724Z,4.67
2022-11-24T03:29:09.070Z,5.08
2022-11-24T03:34:10.947Z,5.11
2022-11-24T03:39:12.948Z,5.77
2022-11-24T03:44:14.821Z,5.56
2022-11-24T03:49:16.737Z,5.43
2022-11-24T03:54:18.761Z,5.06
2022-11-24T03:59:20.699Z,5.56
2022-11-24T04:04:22.670Z,5.10
2022-11-24T04:09:24.605Z,5.37
2022-11-24T04:14:26.530Z,3.83
2022-11-24T04:19:28.549Z,3.53
2022-11-24T04:24:30.509Z,4.10
2022-11-24T04:29:32.434Z,4.31
2022-11-24T04:34:35.067Z,5.31
2022-11-24T04:39:37.265Z,4.34
2022-11-24T04:44:39.268Z,2.69
2022-11-24T04:49:41.171Z,1.88
2022-11-24T04:54:43.307Z,1.95
2022-11-24T04:59:45.329Z,2.21
2022-11-24T05:04:47.628Z,2.45
2022-11-24T05:10:08.488Z,4.32
2022-11-24T05:15:11.161Z,4.71
2022-11-24T05:20:13.216Z,5.07
2022-11-24T05:25:15.414Z,5.11
2022-11-24T05:30:18.062Z,3.36
2022-11-24T05:35:20.959Z,5.57
2022-11-24T05:40:23.300Z,5.87
2022-11-24T05:45:25.630Z,5.73
2022-11-24T05:50:27.580Z,5.52
2022-11-24T05:55:29.596Z,4.60
2022-11-24T06:00:32.971Z,5.26
2022-11-24T06:05:34.970Z,4.74
2022-11-24T06:10:37.071Z,5.44
2022-11-24T06:15:40.461Z,5.86
2022-11-24T06:20:53.099Z,5.55
2022-11-24T06:26:05.113Z,6.32
2022-11-24T06:31:07.112Z,5.74
2022-11-24T06:36:12.144Z,5.84
2022-11-24T06:41:16.104Z,5.20
2022-11-24T06:46:18.180Z,4.45
2022-11-24T06:51:20.262Z,3.91
2022-11-24T06:56:22.376Z,3.28
2022-11-24T07:01:29.558Z,3.76
2022-11-24T07:06:31.575Z,3.40
2022-11-24T07:11:33.617Z,4.24
2022-11-24T07:16:36.478Z,4.83
2022-11-24T07:21:38.569Z,4.66
2022-11-24T07:26:40.611Z,5.13
2022-11-24T07:31:42.744Z,5.35
2022-11-24T07:36:45.213Z,5.41
2022-11-24T07:41:47.201Z,5.97
2022-11-24T07:46:51.323Z,4.56
2022-11-24T07:51:53.374Z,5.54
2022-11-24T07:56:55.602Z,6.33
2022-11-24T08:01:57.632Z,5.36
2022-11-24T08:06:59.612Z,6.91
2022-11-24T08:12:01.639Z,6.04
2022-11-24T08:17:03.906Z,6.94
2022-11-24T08:22:05.984Z,6.87
2022-11-24T08:27:08.014Z,6.66
2022-11-24T08:32:11.038Z,6.78
2022-11-24T08:37:13.083Z,7.13
2022-11-24T08:42:15.087Z,7.41
2022-11-24T08:47:17.147Z,6.43
2022-11-24T08:52:19.123Z,3.46
2022-11-24T08:57:21.990Z,5.85
2022-11-24T09:02:24.080Z,7.24
2022-11-24T09:07:26.104Z,7.64
2022-11-24T09:12:28.293Z,6.75
2022-11-24T09:17:30.279Z,7.74
2022-11-24T09:22:32.428Z,7.45
2022-11-24T09:27:34.450Z,7.58
2022-11-24T09:32:36.512Z,7.52
2022-11-24T09:37:38.532Z,7.90
2022-11-24T09:43:00.603Z,5.90
2022-11-24T09:48:09.096Z,6.04
2022-11-24T09:53:34.492Z,5.15
2022-11-24T09:59:00.970Z,4.16
2022-11-24T10:04:06.689Z,3.13
2022-11-24T10:09:30.555Z,4.25
2022-11-24T10:14:54.134Z,7.51
2022-11-24T10:20:09.304Z,8.24
2022-11-24T10:25:42.179Z,8.03
2022-11-24T10:30:44.209Z,8.09
2022-11-24T10:35:55.344Z,9.17
2022-11-24T10:41:12.733Z,9.18
2022-11-24T10:46:25.478Z,6.66
2022-11-24T10:52:07.179Z,3.24
2022-11-24T10:57:09.267Z,4.68
2022-11-24T11:02:30.173Z,6.48
2022-11-24T11:07:32.337Z,3.39
2022-11-24T11:12:49.665Z,2.90
2022-11-24T11:17:54.640Z,3.12
2022-11-24T11:22:58.876Z,3.91
2022-11-24T11:28:29.366Z,4.08
2022-11-24T11:38:55.807Z,3.98
2022-11-24T11:44:10.850Z,3.39
2022-11-24T11:49:13.580Z,3.93
2022-11-24T11:54:27.365Z,4.04
2022-11-24T11:59:43.861Z,3.91
2022-11-24T12:04:48.762Z,4.87
2022-11-24T12:10:05.609Z,5.07
2022-11-24T12:15:23.029Z,3.75
2022-11-24T12:20:46.524Z,6.43
2022-11-24T12:25:55.152Z,4.37
2022-11-24T12:31:27.505Z,2.07
2022-11-24T12:36:34.910Z,2.73
2022-11-24T12:42:11.870Z,6.62
2022-11-24T12:47:24.259Z,8.04
2022-11-24T12:52:35.214Z,5.41
2022-11-24T12:57:50.847Z,5.66
2022-11-24T13:03:05.568Z,4.12
2022-11-24T13:08:07.954Z,5.17
2022-11-24T13:13:12.443Z,6.49
2022-11-24T13:18:52.142Z,4.67
2022-11-24T13:24:03.065Z,6.70
2022-11-24T13:29:18.214Z,5.26
2022-11-24T13:34:41.572Z,5.30
2022-11-24T13:39:57.835Z,5.99
2022-11-24T13:45:04.567Z,8.96
2022-11-24T13:50:49.818Z,9.82
2022-11-24T13:56:08.896Z,10.37
2022-11-24T14:01:18.384Z,11.11
2022-11-24T14:06:34.375Z,11.43
2022-11-24T14:11:36.488Z,12.03
2022-11-24T14:16:38.529Z,11.65
2022-11-24T14:21:41.459Z,12.18
2022-11-24T14:26:47.124Z,11.18
2022-11-24T14:32:04.841Z,11.14
2022-11-24T14:37:09.680Z,11.32
2022-11-24T14:42:21.361Z,12.22
2022-11-24T14:47:32.085Z,11.46
2022-11-24T14:52:35.185Z,11.59
2022-11-24T14:57:40.405Z,11.92
2022-11-24T15:02:53.459Z,10.41
2022-11-24T15:08:03.460Z,11.25
2022-11-24T15:13:19.023Z,11.42
2022-11-24T15:18:46.085Z,10.48
2022-11-24T15:24:15.360Z,9.63
2022-11-24T15:29:17.276Z,10.62
2022-11-24T15:34:19.189Z,8.92
2022-11-24T15:39:21.102Z,8.66
2022-11-24T15:44:23.027Z,8.96
2022-11-24T15:49:24.949Z,8.64
2022-11-24T15:54:27.737Z,8.78
2022-11-24T15:59:31.274Z,8.68
2022-11-24T16:04:33.681Z,8.91
2022-11-24T16:09:35.902Z,8.38
2022-11-24T16:14:38.172Z,8.44
2022-11-24T16:19:41.999Z,6.31
2022-11-24T16:24:44.272Z,7.48
2022-11-24T16:29:46.184Z,6.70
2022-11-24T16:34:48.312Z,6.57
2022-11-24T16:39:50.935Z,7.66
2022-11-24T16:44:52.932Z,7.43
2022-11-24T16:49:54.903Z,7.88
2022-11-24T16:54:56.928Z,7.87
2022-11-24T16:59:58.933Z,7.81
2022-11-24T17:05:01.034Z,6.86
2022-11-24T17:10:03.297Z,6.90
2022-11-24T17:20:27.829Z,7.48
2022-11-24T17:25:29.896Z,6.39
2022-11-24T17:30:31.910Z,7.27
2022-11-24T17:35:34.850Z,7.67
2022-11-24T17:40:37.261Z,8.16
2022-11-24T17:45:39.374Z,6.84
2022-11-24T17:50:41.343Z,8.33
2022-11-24T17:55:43.367Z,6.10
2022-11-24T18:00:45.472Z,7.77
2022-11-24T18:05:47.850Z,6.95
2022-11-24T18:10:50.176Z,6.57
2022-11-24T18:15:52.091Z,5.94
2022-11-24T18:20:58.551Z,6.56
2022-11-24T18:26:03.712Z,6.25
2022-11-24T18:31:11.367Z,6.20
2022-11-24T18:36:17.355Z,6.94
2022-11-24T18:41:20.222Z,7.44
2022-11-24T18:46:22.347Z,6.96
2022-11-24T18:51:24.694Z,6.22
2022-11-24T18:56:27.174Z,6.66
2022-11-24T19:01:29.602Z,6.84
2022-11-24T19:06:37.026Z,7.25
2022-11-24T19:11:41.753Z,6.85
2022-11-24T19:16:45.239Z,6.81
2022-11-24T19:21:47.313Z,6.54
2022-11-24T19:26:51.330Z,7.37
2022-11-24T19:31:55.097Z,6.16
2022-11-24T19:36:57.112Z,7.22
2022-11-24T19:41:59.060Z,5.70
2022-11-24T19:47:01.038Z,5.93
2022-11-24T19:52:03.109Z,3.67
2022-11-24T19:57:05.063Z,4.96
2022-11-24T20:02:07.237Z,5.68
2022-11-24T20:07:09.629Z,6.64
2022-11-24T20:12:11.680Z,7.00
2022-11-24T20:17:14.098Z,6.18
2022-11-24T20:22:15.985Z,7.10
2022-11-24T20:27:18.457Z,6.39
2022-11-24T20:32:20.752Z,7.15
2022-11-24T20:37:23.371Z,7.09
2022-11-24T20:42:25.539Z,6.34
2022-11-24T20:47:27.980Z,6.46
2022-11-24T20:52:30.429Z,7.40
2022-11-24T20:57:32.463Z,6.14
2022-11-24T21:02:34.402Z,7.23
2022-11-24T21:07:36.367Z,7.54
2022-11-24T21:12:38.345Z,7.35
2022-11-24T21:17:40.369Z,7.07
2022-11-24T21:22:42.242Z,7.09
2022-11-24T21:27:44.266Z,6.73
2022-11-24T21:32:46.592Z,6.75
2022-11-24T21:37:48.521Z,6.40
2022-11-24T21:42:50.436Z,4.86
2022-11-24T21:47:52.360Z,4.76
2022-11-24T21:52:54.986Z,5.97
2022-11-24T21:57:58.995Z,6.95
2022-11-24T22:03:00.873Z,6.15
2022-11-24T22:08:03.914Z,6.10
2022-11-24T22:13:05.842Z,6.29
2022-11-24T22:18:07.811Z,6.96
2022-11-24T22:23:10.360Z,6.67
2022-11-24T22:28:12.354Z,6.46
2022-11-24T22:33:14.319Z,6.18
2022-11-24T22:38:16.215Z,7.29
2022-11-24T22:43:22.848Z,7.34
2022-11-24T22:48:25.063Z,7.33
2022-11-24T22:53:26.997Z,7.91
2022-11-24T22:58:30.315Z,6.17
2022-11-24T23:03:34.245Z,6.52
2022-11-24T23:08:36.853Z,7.50
2022-11-24T23:13:39.161Z,6.65
2022-11-24T23:18:41.680Z,6.96
2022-11-24T23:23:44.746Z,6.70
2022-11-24T23:28:47.681Z,6.92
2022-11-24T23:33:49.987Z,7.16
2022-11-24T23:38:52.036Z,6.18
2022-11-24T23:43:53.939Z,6.43
2022-11-24T23:48:56.880Z,6.66
2022-11-24T23:54:00.028Z,6.11
2022-11-24T23:59:03.857Z,6.57
